Time;durP1;ratioP1;P1;durP2;ratioP2;P2;SDS_P1;SDS_P2;PMS_P1;PMS_P2;Temp;Humidity;BMP_temperature;BMP_pressure;BME280_temperature;BME280_humidity;BME280_pressure;Samples;Min_cycle;Max_cycle;Signal;HPM_P1;HPM_P2
2021/01/23 00:00:25;;;;;;;97.37;52.30;;;1.10;93.90;;;;;;4973728;28;20271;-80
2021/01/23 00:03:12;;;;;;;94.47;52.43;;;1.10;93.90;;;;;;4968679;28;20620;-81
2021/01/23 00:05:40;;;;;;;98.90;53.50;;;1.00;93.90;;;;;;4971727;28;20208;-82
2021/01/23 00:08:08;;;;;;;101.10;51.40;;;1.00;93.90;;;;;;4961290;28;20201;-79
2021/01/23 00:10:35;;;;;;;100.10;52.63;;;0.90;93.90;;;;;;4980691;28;20206;-82
2021/01/23 00:13:04;;;;;;;92.90;52.30;;;0.80;93.90;;;;;;4958101;28;20197;-80
2021/01/23 00:15:32;;;;;;;95.77;52.80;;;0.70;93.90;;;;;;4976116;28;20295;-81
2021/01/23 00:17:59;;;;;;;88.23;49.10;;;0.50;93.90;;;;;;4977357;28;20199;-81
2021/01/23 00:20:28;;;;;;;94.13;48.83;;;0.50;93.90;;;;;;4967770;28;20625;-80
2021/01/23 00:22:56;;;;;;;94.60;51.03;;;0.50;93.90;;;;;;4963502;28;20271;-81
2021/01/23 00:25:23;;;;;;;91.37;49.67;;;0.50;93.80;;;;;;4973070;28;20210;-80
2021/01/23 00:27:51;;;;;;;98.60;50.93;;;0.60;93.90;;;;;;4956445;28;20449;-82
2021/01/23 00:30:19;;;;;;;93.00;49.70;;;0.60;93.90;;;;;;4981405;28;20203;-80
2021/01/23 00:32:46;;;;;;;100.83;52.63;;;0.70;93.90;;;;;;4975767;28;20279;-81
2021/01/23 00:35:15;;;;;;;96.23;52.23;;;0.80;93.90;;;;;;4972462;28;20208;-79
2021/01/23 00:37:47;;;;;;;91.73;48.43;;;0.80;93.90;;;;;;4983875;28;20646;-79
2021/01/23 00:40:15;;;;;;;88.33;47.70;;;0.80;93.90;;;;;;4969651;28;20279;-80
2021/01/23 00:42:43;;;;;;;98.23;50.80;;;0.80;93.90;;;;;;4967650;28;20248;-82
2021/01/23 00:45:11;;;;;;;107.37;55.30;;;0.90;93.90;;;;;;4981363;28;20274;-82
2021/01/23 00:47:40;;;;;;;99.20;52.03;;;0.90;93.90;;;;;;4978973;28;20215;-81
2021/01/23 00:50:08;;;;;;;83.90;45.67;;;0.80;93.90;;;;;;4998080;28;20576;-79
2021/01/23 00:52:36;;;;;;;87.80;47.07;;;0.80;93.80;;;;;;4978331;28;20208;-80
2021/01/23 00:55:06;;;;;;;95.43;51.30;;;0.90;93.90;;;;;;4966765;28;20193;-80
2021/01/23 00:57:33;;;;;;;93.80;48.10;;;0.90;93.80;;;;;;4978317;28;20270;-81
2021/01/23 01:00:01;;;;;;;89.80;46.97;;;0.90;93.80;;;;;;4969163;28;20222;-81
2021/01/23 01:02:30;;;;;;;89.67;46.63;;;0.80;93.80;;;;;;4976755;28;20263;-81
2021/01/23 01:04:58;;;;;;;85.17;44.00;;;0.90;93.80;;;;;;4976850;28;20204;-82
2021/01/23 01:07:25;;;;;;;87.40;46.23;;;1.00;93.80;;;;;;4983505;28;20225;-79
2021/01/23 01:09:53;;;;;;;91.80;46.40;;;1.20;93.80;;;;;;4992990;28;20203;-82
2021/01/23 01:12:21;;;;;;;86.47;46.43;;;1.40;93.80;;;;;;4975076;28;20218;-80
2021/01/23 01:14:49;;;;;;;102.60;49.87;;;1.50;93.70;;;;;;4978131;28;20253;-80
2021/01/23 01:17:17;;;;;;;94.80;49.70;;;1.50;93.70;;;;;;4976156;28;20729;-81
2021/01/23 01:19:45;;;;;;;98.77;48.80;;;1.30;93.70;;;;;;4971285;28;20236;-79
2021/01/23 01:22:12;;;;;;;93.13;48.03;;;1.20;93.80;;;;;;4975356;28;20738;-80
2021/01/23 01:24:40;;;;;;;82.80;45.47;;;1.00;93.70;;;;;;4975742;28;20207;-81
2021/01/23 01:27:07;;;;;;;74.73;41.30;;;0.90;93.80;;;;;;4962733;28;20209;-79
2021/01/23 01:29:36;;;;;;;84.33;45.17;;;1.00;93.70;;;;;;4980516;28;20208;-81
2021/01/23 01:32:06;;;;;;;89.10;46.90;;;1.30;93.80;;;;;;4972262;28;20320;-81
2021/01/23 01:34:34;;;;;;;85.83;45.07;;;1.20;93.70;;;;;;4975234;28;20672;-82
2021/01/23 01:37:01;;;;;;;80.47;44.83;;;1.10;93.70;;;;;;4984108;28;20559;-80
2021/01/23 01:39:29;;;;;;;84.00;45.83;;;1.00;93.70;;;;;;4968839;28;20211;-81
2021/01/23 01:41:56;;;;;;;88.70;45.77;;;1.00;93.70;;;;;;4978255;28;20220;-82
2021/01/23 01:44:24;;;;;;;87.93;45.47;;;1.20;93.70;;;;;;4976901;28;20971;-80
2021/01/23 01:46:52;;;;;;;87.70;47.13;;;1.30;93.60;;;;;;4971004;28;20197;-80
2021/01/23 01:49:20;;;;;;;86.97;46.50;;;1.30;93.60;;;;;;4969720;28;20219;-81
2021/01/23 01:51:48;;;;;;;81.47;44.53;;;1.30;93.60;;;;;;4982077;28;20197;-80
2021/01/23 01:54:15;;;;;;;88.10;46.93;;;1.20;93.60;;;;;;4984302;28;20827;-81
2021/01/23 01:56:43;;;;;;;82.30;45.40;;;1.20;93.60;;;;;;4964966;28;20723;-79
2021/01/23 01:59:12;;;;;;;77.90;43.07;;;1.00;93.60;;;;;;4980581;28;20738;-80
2021/01/23 02:01:39;;;;;;;79.20;46.03;;;1.00;93.70;;;;;;4981310;28;20224;-81
2021/01/23 02:04:20;;;;;;;81.97;43.87;;;0.80;93.60;;;;;;4985618;28;20318;-82
2021/01/23 02:07:13;;;;;;;84.83;43.27;;;0.70;93.60;;;;;;4977740;28;20227;-79
2021/01/23 02:10:02;;;;;;;83.23;43.53;;;0.70;93.60;;;;;;4983321;28;20200;-81
2021/01/23 02:12:37;;;;;;;81.93;43.43;;;0.60;93.60;;;;;;4989338;28;20200;-79
2021/01/23 02:15:11;;;;;;;73.57;42.17;;;0.50;93.60;;;;;;4988974;28;20700;-79
2021/01/23 02:17:44;;;;;;;79.83;44.27;;;0.40;93.50;;;;;;4989500;28;20205;-81
2021/01/23 02:20:32;;;;;;;80.03;43.60;;;0.30;93.50;;;;;;4988194;28;20216;-81
2021/01/23 02:23:13;;;;;;;81.90;44.00;;;0.30;93.50;;;;;;4988289;28;20532;-81
2021/01/23 02:26:10;;;;;;;81.37;42.53;;;0.20;93.50;;;;;;4993457;28;20209;-80
2021/01/23 02:29:01;;;;;;;83.27;42.53;;;0.10;93.50;;;;;;4986806;28;20286;-81
2021/01/23 02:31:31;;;;;;;85.83;44.90;;;0.00;93.50;;;;;;4985114;28;20228;-80
2021/01/23 02:34:01;;;;;;;80.87;44.00;;;0.00;93.50;;;;;;4990337;28;20272;-82
2021/01/23 02:36:30;;;;;;;82.57;43.37;;;-0.10;93.40;;;;;;5001946;28;20201;-80
2021/01/23 02:38:59;;;;;;;81.67;41.93;;;-0.10;93.40;;;;;;4997977;28;20197;-80
2021/01/23 02:41:26;;;;;;;79.30;42.33;;;-0.10;93.40;;;;;;4987039;28;20283;-80
2021/01/23 02:43:54;;;;;;;84.90;42.83;;;-0.20;93.40;;;;;;4983496;28;20236;-79
2021/01/23 02:46:21;;;;;;;78.10;42.23;;;-0.30;93.40;;;;;;4975043;28;20231;-81
2021/01/23 02:48:50;;;;;;;81.70;42.27;;;-0.40;93.40;;;;;;4971108;28;20481;-81
2021/01/23 02:51:26;;;;;;;78.87;42.93;;;-0.50;93.40;;;;;;4979822;28;20206;-82
2021/01/23 02:54:01;;;;;;;77.53;42.57;;;-0.60;93.40;;;;;;4993584;28;20268;-81
2021/01/23 02:56:32;;;;;;;78.73;42.83;;;-0.60;93.30;;;;;;4995491;28;20210;-81
2021/01/23 02:59:03;;;;;;;81.00;42.20;;;-0.60;93.30;;;;;;4984321;28;20220;-78
2021/01/23 03:01:35;;;;;;;83.57;42.27;;;-0.60;93.30;;;;;;4989118;28;20346;-81
2021/01/23 03:04:04;;;;;;;79.37;42.17;;;-0.60;93.30;;;;;;4989596;28;20282;-82
2021/01/23 03:06:33;;;;;;;81.43;42.60;;;-0.70;93.30;;;;;;4979826;28;20738;-80
2021/01/23 03:09:15;;;;;;;82.80;42.73;;;-0.80;93.20;;;;;;4994557;28;20203;-81
2021/01/23 03:11:43;;;;;;;77.60;43.57;;;-0.70;93.30;;;;;;4984672;28;20270;-81
2021/01/23 03:14:10;;;;;;;93.07;49.57;;;-0.80;93.20;;;;;;4995012;28;20226;-81
2021/01/23 03:16:38;;;;;;;87.40;48.60;;;-0.70;93.20;;;;;;4981501;28;20410;-79
2021/01/23 03:19:06;;;;;;;94.53;49.77;;;-0.70;93.20;;;;;;4981114;28;20218;-81
2021/01/23 03:21:34;;;;;;;89.77;46.93;;;-0.70;93.20;;;;;;4991923;28;20201;-80
2021/01/23 03:24:01;;;;;;;92.97;50.70;;;-0.60;93.20;;;;;;4987055;28;20590;-81
2021/01/23 03:26:29;;;;;;;125.00;66.07;;;-0.70;93.20;;;;;;4975148;28;20902;-80
2021/01/23 03:28:57;;;;;;;114.33;61.53;;;-0.70;93.20;;;;;;4981504;28;20215;-79
2021/01/23 03:31:24;;;;;;;93.10;51.57;;;-0.70;93.10;;;;;;4980295;28;20212;-80
2021/01/23 03:33:52;;;;;;;88.87;47.63;;;-0.70;93.10;;;;;;4982866;28;20707;-80
2021/01/23 03:36:20;;;;;;;92.67;52.87;;;-0.80;93.10;;;;;;4979194;28;20723;-78
2021/01/23 03:38:47;;;;;;;99.43;53.37;;;-0.70;93.10;;;;;;4978718;28;21027;-80
2021/01/23 03:41:15;;;;;;;92.07;49.83;;;-0.80;93.10;;;;;;4984604;28;20213;-80
2021/01/23 03:43:43;;;;;;;121.17;66.73;;;-0.70;93.10;;;;;;4976468;28;20228;-80
2021/01/23 03:46:11;;;;;;;103.20;56.87;;;-0.80;93.10;;;;;;4967106;28;20213;-80
2021/01/23 03:48:38;;;;;;;109.00;56.13;;;-0.90;93.10;;;;;;4980219;28;20457;-81
2021/01/23 03:51:06;;;;;;;99.53;56.87;;;-0.90;93.10;;;;;;4972447;28;20268;-80
2021/01/23 03:53:34;;;;;;;104.03;56.10;;;-1.00;93.10;;;;;;4982874;28;20211;-79
2021/01/23 03:56:04;;;;;;;87.90;48.63;;;-1.10;93.00;;;;;;4987311;28;20209;-79
2021/01/23 03:58:31;;;;;;;106.73;56.73;;;-1.10;93.00;;;;;;4988694;28;20368;-79
2021/01/23 04:00:59;;;;;;;112.07;63.80;;;-0.80;93.00;;;;;;5000029;28;20185;-80
2021/01/23 04:03:26;;;;;;;115.07;62.27;;;-0.90;93.00;;;;;;5006870;28;20228;-80
2021/01/23 04:05:54;;;;;;;117.13;63.63;;;-0.90;93.00;;;;;;5005715;28;20199;-80
2021/01/23 04:08:21;;;;;;;116.10;56.80;;;-1.00;93.00;;;;;;5006545;28;20199;-79
2021/01/23 04:10:50;;;;;;;110.30;53.83;;;-1.00;93.00;;;;;;4995128;28;20200;-81
2021/01/23 04:13:19;;;;;;;97.77;49.57;;;-1.00;93.00;;;;;;4991538;28;20263;-80
2021/01/23 04:15:46;;;;;;;99.57;51.33;;;-0.90;93.00;;;;;;5002562;28;20234;-81
2021/01/23 04:18:14;;;;;;;101.17;49.37;;;-0.80;93.00;;;;;;5005115;28;20236;-81
2021/01/23 04:20:41;;;;;;;95.50;47.50;;;-0.80;93.00;;;;;;5005493;28;20195;-80
2021/01/23 04:23:09;;;;;;;94.53;47.03;;;-0.80;93.00;;;;;;5005396;28;20219;-80
2021/01/23 04:25:36;;;;;;;100.97;50.43;;;-0.70;93.00;;;;;;4999735;28;20209;-79
2021/01/23 04:28:05;;;;;;;99.07;49.40;;;-0.70;93.00;;;;;;4986506;28;21120;-81
2021/01/23 04:30:32;;;;;;;103.60;49.60;;;-0.50;92.90;;;;;;4985184;28;20209;-80
2021/01/23 04:33:00;;;;;;;99.77;48.43;;;-0.40;93.00;;;;;;4981314;28;20584;-79
2021/01/23 04:35:28;;;;;;;103.00;49.03;;;-0.40;93.00;;;;;;4984961;28;20393;-79
2021/01/23 04:37:55;;;;;;;99.10;50.87;;;-0.40;93.00;;;;;;4983388;28;20215;-80
2021/01/23 04:40:23;;;;;;;98.87;49.17;;;-0.30;93.00;;;;;;4985927;28;20206;-81
2021/01/23 04:42:51;;;;;;;99.80;49.53;;;-0.20;93.00;;;;;;4979246;28;20209;-79
2021/01/23 04:45:19;;;;;;;103.20;50.33;;;0.00;93.10;;;;;;4986956;28;20238;-80
2021/01/23 04:47:47;;;;;;;97.37;48.23;;;0.10;93.10;;;;;;4979514;28;20204;-81
2021/01/23 04:50:15;;;;;;;103.03;48.93;;;0.20;93.10;;;;;;4978703;28;20716;-80
2021/01/23 04:52:42;;;;;;;100.97;49.03;;;0.30;93.20;;;;;;4962308;28;20252;-81
2021/01/23 04:55:10;;;;;;;97.07;47.23;;;0.30;93.20;;;;;;4978125;28;20541;-80
2021/01/23 04:57:38;;;;;;;94.20;49.10;;;0.40;93.20;;;;;;4977953;28;20204;-81
2021/01/23 05:00:07;;;;;;;97.20;47.10;;;0.40;93.20;;;;;;4979660;28;20421;-81
2021/01/23 05:02:36;;;;;;;96.33;49.10;;;0.50;93.20;;;;;;5000566;28;20204;-80
2021/01/23 05:05:05;;;;;;;103.00;48.83;;;0.50;93.20;;;;;;4996242;28;20301;-81
2021/01/23 05:07:35;;;;;;;100.60;49.43;;;0.60;93.30;;;;;;4986712;28;20712;-80
2021/01/23 05:10:15;;;;;;;96.83;49.30;;;0.70;93.30;;;;;;4990413;28;20220;-81
2021/01/23 05:12:44;;;;;;;100.67;49.77;;;0.60;93.30;;;;;;4971509;28;20204;-81
2021/01/23 05:15:19;;;;;;;99.23;51.43;;;0.60;93.30;;;;;;4982694;28;20206;-79
2021/01/23 05:17:53;;;;;;;99.10;50.03;;;0.60;93.30;;;;;;4984073;28;20647;-80
2021/01/23 05:20:36;;;;;;;89.90;44.83;;;0.60;93.30;;;;;;4998574;28;20207;-79
2021/01/23 05:23:05;;;;;;;102.47;49.07;;;0.70;93.30;;;;;;4996282;28;20212;-79
2021/01/23 05:25:34;;;;;;;78.77;40.37;;;1.00;93.50;;;;;;4986982;28;20206;-79
2021/01/23 05:28:04;;;;;;;117.17;55.87;;;1.00;93.50;;;;;;4985393;28;20288;-79
2021/01/23 05:30:43;;;;;;;91.60;45.17;;;1.30;93.50;;;;;;4992754;28;20215;-80
2021/01/23 05:33:14;;;;;;;90.70;48.27;;;1.30;93.50;;;;;;4991054;28;20196;-81
2021/01/23 05:35:42;;;;;;;112.37;53.90;;;1.40;93.50;;;;;;4983141;28;20203;-80
2021/01/23 05:38:25;;;;;;;136.33;65.23;;;1.40;93.50;;;;;;4986187;28;20208;-80
2021/01/23 05:40:55;;;;;;;129.83;61.37;;;1.20;94.00;;;;;;4985467;28;20211;-82
2021/01/23 05:43:33;;;;;;;130.80;58.57;;;1.00;94.00;;;;;;4973995;28;20322;-81
2021/01/23 05:46:04;;;;;;;103.20;51.10;;;1.00;94.00;;;;;;4965942;28;20570;-82
2021/01/23 05:48:33;;;;;;;93.03;50.27;;;1.00;94.00;;;;;;4976952;28;20621;-80
2021/01/23 05:51:02;;;;;;;100.50;49.23;;;1.10;94.00;;;;;;4974043;28;20291;-80
2021/01/23 05:53:30;;;;;;;92.03;47.33;;;1.20;94.10;;;;;;4965155;28;20212;-78
2021/01/23 05:55:59;;;;;;;96.13;49.90;;;1.30;94.10;;;;;;4976259;28;20373;-81
2021/01/23 05:58:31;;;;;;;98.57;49.60;;;1.40;94.10;;;;;;4978522;28;20195;-80
2021/01/23 06:01:01;;;;;;;102.67;50.43;;;1.50;94.10;;;;;;4964638;28;20418;-78
2021/01/23 06:03:35;;;;;;;92.20;46.87;;;1.60;94.10;;;;;;4968869;28;20320;-80
2021/01/23 06:06:04;;;;;;;107.07;54.37;;;1.60;94.10;;;;;;4971934;28;20211;-80
2021/01/23 06:08:39;;;;;;;101.50;50.93;;;1.60;94.10;;;;;;4978156;28;20327;-80
2021/01/23 06:11:37;;;;;;;97.97;48.70;;;1.60;94.10;;;;;;4989524;28;20252;-82
2021/01/23 06:14:05;;;;;;;88.27;45.13;;;1.60;94.10;;;;;;4968942;28;20568;-81
2021/01/23 06:16:42;;;;;;;89.43;45.77;;;1.70;94.20;;;;;;4983159;28;20196;-81
2021/01/23 06:19:43;;;;;;;90.57;45.83;;;1.80;94.20;;;;;;4969439;28;20207;-80
2021/01/23 06:22:12;;;;;;;86.27;44.33;;;1.90;94.20;;;;;;4978710;28;20199;-80
2021/01/23 06:24:56;;;;;;;87.33;44.73;;;2.20;94.20;;;;;;4978974;28;20220;-80
2021/01/23 06:27:48;;;;;;;94.97;45.77;;;2.20;94.10;;;;;;4968801;28;20215;-81
2021/01/23 06:30:30;;;;;;;92.20;46.53;;;2.40;94.20;;;;;;4982040;28;21034;-82
2021/01/23 06:32:58;;;;;;;90.27;45.97;;;2.40;94.20;;;;;;4967463;28;20443;-81
2021/01/23 06:35:26;;;;;;;96.57;47.23;;;2.50;94.20;;;;;;4970953;28;20722;-80
2021/01/23 06:38:11;;;;;;;92.90;47.17;;;2.50;94.20;;;;;;4985678;28;20697;-81
2021/01/23 06:40:40;;;;;;;85.50;45.80;;;2.60;94.20;;;;;;4996680;28;20211;-80
2021/01/23 06:43:08;;;;;;;99.77;47.40;;;2.60;94.20;;;;;;4986653;28;20291;-80
2021/01/23 06:45:37;;;;;;;98.20;46.40;;;2.70;94.30;;;;;;4985967;28;20215;-79
2021/01/23 06:48:06;;;;;;;95.60;45.03;;;2.80;94.30;;;;;;4983640;28;20216;-80
2021/01/23 06:50:39;;;;;;;95.50;46.37;;;2.70;94.30;;;;;;4979336;28;20849;-80
2021/01/23 06:53:20;;;;;;;88.00;43.50;;;2.60;94.30;;;;;;4967275;28;20216;-81
2021/01/23 06:55:51;;;;;;;82.30;43.40;;;2.60;94.30;;;;;;4976663;28;20240;-80
2021/01/23 06:58:24;;;;;;;89.47;43.70;;;2.70;94.30;;;;;;4981213;28;20211;-81
2021/01/23 07:00:54;;;;;;;87.93;42.37;;;2.70;94.30;;;;;;4982140;28;20213;-80
2021/01/23 07:03:22;;;;;;;86.13;42.43;;;2.80;94.40;;;;;;4981823;28;20207;-80
2021/01/23 07:05:56;;;;;;;85.17;43.33;;;2.80;94.40;;;;;;4981042;28;20205;-79
2021/01/23 07:08:29;;;;;;;81.40;44.20;;;2.90;94.40;;;;;;4983862;28;20524;-79
2021/01/23 07:11:11;;;;;;;87.40;42.60;;;3.00;94.40;;;;;;4992026;28;20204;-81
2021/01/23 07:13:56;;;;;;;78.77;42.07;;;3.00;94.40;;;;;;4973403;28;20425;-79
2021/01/23 07:16:24;;;;;;;84.67;42.03;;;3.00;94.40;;;;;;4991833;28;20204;-80
2021/01/23 07:18:53;;;;;;;82.00;41.73;;;3.00;94.40;;;;;;4985043;28;20633;-80
2021/01/23 07:21:22;;;;;;;89.90;42.77;;;3.10;94.40;;;;;;4972490;28;20368;-81
2021/01/23 07:23:50;;;;;;;88.63;42.80;;;3.20;94.50;;;;;;4974860;28;20336;-80
2021/01/23 07:26:18;;;;;;;86.20;41.73;;;3.20;94.50;;;;;;4971857;28;20205;-81
2021/01/23 07:28:48;;;;;;;80.33;40.97;;;3.30;94.50;;;;;;4966311;28;20195;-79
2021/01/23 07:31:20;;;;;;;87.67;42.30;;;3.40;94.50;;;;;;4979023;28;20227;-80
2021/01/23 07:33:48;;;;;;;75.87;40.70;;;3.50;94.50;;;;;;4969300;28;20206;-80
2021/01/23 07:36:34;;;;;;;84.23;40.93;;;3.50;94.50;;;;;;4964639;28;20206;-80
2021/01/23 07:39:05;;;;;;;82.67;42.30;;;3.70;94.50;;;;;;4961350;28;20871;-81
2021/01/23 07:41:35;;;;;;;84.83;40.77;;;3.80;94.50;;;;;;4968891;28;20359;-81
2021/01/23 07:44:05;;;;;;;82.90;40.57;;;3.90;94.50;;;;;;4984764;28;20315;-81
2021/01/23 07:46:37;;;;;;;76.97;41.13;;;4.00;94.60;;;;;;4962379;28;20206;-79
2021/01/23 07:49:06;;;;;;;80.47;40.70;;;4.10;94.60;;;;;;4964084;28;20408;-81
2021/01/23 07:51:35;;;;;;;81.63;40.13;;;4.20;94.60;;;;;;4968393;28;20208;-81
2021/01/23 07:54:05;;;;;;;81.60;41.33;;;4.40;94.60;;;;;;4965724;28;20212;-82
2021/01/23 07:56:32;;;;;;;83.27;42.07;;;4.40;94.60;;;;;;4974808;28;20754;-81
2021/01/23 07:59:00;;;;;;;78.77;40.27;;;4.40;94.70;;;;;;4989311;28;20216;-81
2021/01/23 08:01:28;;;;;;;84.47;41.37;;;4.50;94.70;;;;;;4979367;28;20559;-80
2021/01/23 08:03:56;;;;;;;77.13;40.97;;;4.50;94.70;;;;;;4977924;28;20361;-79
2021/01/23 08:06:25;;;;;;;78.03;41.40;;;4.60;94.70;;;;;;4976698;28;20208;-79
2021/01/23 08:08:54;;;;;;;78.93;40.67;;;4.60;94.80;;;;;;4977872;28;20517;-79
2021/01/23 08:11:38;;;;;;;81.63;41.10;;;4.70;94.80;;;;;;4985849;28;20941;-80
2021/01/23 08:14:07;;;;;;;82.87;41.50;;;4.70;94.80;;;;;;4962499;28;20216;-79
2021/01/23 08:16:35;;;;;;;75.53;40.33;;;4.80;94.90;;;;;;4993718;28;20319;-81
2021/01/23 08:19:06;;;;;;;74.50;39.90;;;4.70;94.90;;;;;;4976089;28;20205;-81
2021/01/23 08:21:34;;;;;;;75.80;40.20;;;4.80;95.00;;;;;;4975811;28;20208;-81
2021/01/23 08:24:03;;;;;;;74.20;41.07;;;4.70;95.00;;;;;;4989655;28;20224;-80
2021/01/23 08:26:38;;;;;;;75.23;41.07;;;4.80;95.00;;;;;;4975828;28;20208;-80
2021/01/23 08:29:05;;;;;;;77.37;41.03;;;4.80;95.00;;;;;;4976115;28;20592;-80
2021/01/23 08:31:33;;;;;;;81.53;41.77;;;4.80;95.10;;;;;;4974828;28;20212;-81
2021/01/23 08:34:01;;;;;;;79.80;40.77;;;4.80;95.10;;;;;;4966273;28;20526;-80
2021/01/23 08:36:30;;;;;;;80.40;40.20;;;4.90;95.20;;;;;;4969887;28;20208;-81
2021/01/23 08:39:05;;;;;;;73.77;41.23;;;4.90;95.20;;;;;;4979772;28;20259;-80
2021/01/23 08:41:34;;;;;;;68.63;39.80;;;4.90;95.30;;;;;;4971886;28;20662;-82
2021/01/23 08:44:02;;;;;;;74.87;41.33;;;5.00;95.30;;;;;;4975455;28;20219;-79
2021/01/23 08:46:30;;;;;;;78.20;39.57;;;5.00;95.40;;;;;;4969365;28;20271;-80
2021/01/23 08:48:59;;;;;;;72.53;40.17;;;5.00;95.40;;;;;;4974450;28;20764;-81
2021/01/23 08:51:28;;;;;;;69.37;38.80;;;5.00;95.50;;;;;;4974478;28;20250;-82
2021/01/23 08:53:56;;;;;;;72.10;39.80;;;5.10;95.50;;;;;;4968494;28;20602;-80
2021/01/23 08:56:25;;;;;;;72.67;38.53;;;5.10;95.60;;;;;;4978416;28;20236;-81
2021/01/23 08:58:52;;;;;;;68.47;38.43;;;5.10;95.60;;;;;;4964589;28;20204;-79
2021/01/23 09:01:20;;;;;;;68.37;38.53;;;5.10;95.70;;;;;;4966774;28;20199;-81
2021/01/23 09:03:48;;;;;;;65.13;38.40;;;5.10;95.70;;;;;;4971759;28;20740;-81
2021/01/23 09:06:16;;;;;;;66.40;37.17;;;5.10;95.80;;;;;;4969297;28;20231;-80
2021/01/23 09:08:44;;;;;;;62.47;37.83;;;5.10;95.80;;;;;;4976576;28;20198;-79
2021/01/23 09:11:12;;;;;;;69.57;38.27;;;5.10;95.90;;;;;;4970236;28;20654;-81
2021/01/23 09:13:43;;;;;;;64.53;37.13;;;5.20;95.90;;;;;;4964514;28;20212;-82
2021/01/23 09:16:10;;;;;;;60.77;37.80;;;5.20;96.00;;;;;;4970036;28;20276;-80
2021/01/23 09:18:38;;;;;;;59.73;35.27;;;5.20;96.00;;;;;;4965536;28;20717;-81
2021/01/23 09:21:06;;;;;;;57.17;35.57;;;5.40;96.10;;;;;;4962580;28;20204;-82
2021/01/23 09:23:34;;;;;;;60.40;35.00;;;5.30;96.20;;;;;;4976590;28;20467;-81
2021/01/23 09:26:02;;;;;;;54.13;35.03;;;5.30;96.20;;;;;;4963677;28;20213;-81
2021/01/23 09:28:30;;;;;;;56.30;34.23;;;5.40;96.30;;;;;;4975553;28;20298;-81
2021/01/23 09:30:59;;;;;;;54.53;33.50;;;5.50;96.40;;;;;;4972501;28;20554;-80
2021/01/23 09:33:27;;;;;;;54.97;34.10;;;5.50;96.50;;;;;;4967321;28;20197;-81
2021/01/23 09:35:55;;;;;;;54.87;34.07;;;5.50;96.50;;;;;;4985117;28;20196;-81
2021/01/23 09:38:22;;;;;;;54.73;32.83;;;5.50;96.60;;;;;;4977973;28;20213;-81
2021/01/23 09:40:50;;;;;;;47.67;31.40;;;5.50;96.70;;;;;;4968211;28;20600;-80
2021/01/23 09:43:18;;;;;;;49.60;31.33;;;5.60;96.80;;;;;;4999502;28;20216;-81
2021/01/23 09:45:45;;;;;;;54.13;31.87;;;5.60;96.90;;;;;;4998546;28;20236;-81
2021/01/23 09:48:15;;;;;;;46.53;32.00;;;5.60;96.90;;;;;;5002409;28;20227;-81
2021/01/23 09:50:43;;;;;;;43.80;30.40;;;5.70;96.90;;;;;;4981111;28;20203;-80
2021/01/23 09:53:11;;;;;;;46.93;29.40;;;5.70;96.90;;;;;;4979140;28;20264;-79
2021/01/23 09:55:39;;;;;;;42.07;28.20;;;5.70;96.80;;;;;;4994977;28;20492;-80
2021/01/23 09:58:06;;;;;;;41.33;28.73;;;5.70;96.80;;;;;;4993851;28;20210;-78
2021/01/23 10:00:34;;;;;;;42.53;28.80;;;5.70;96.70;;;;;;4992221;28;20190;-82
2021/01/23 10:03:02;;;;;;;41.37;27.40;;;5.70;96.60;;;;;;4990271;28;20289;-82
2021/01/23 10:05:31;;;;;;;40.30;28.23;;;5.70;96.60;;;;;;4970362;28;20420;-81
2021/01/23 10:07:59;;;;;;;33.93;24.87;;;5.70;96.60;;;;;;4981273;28;20491;-81
2021/01/23 10:10:28;;;;;;;36.70;25.73;;;5.70;96.40;;;;;;4983483;28;20205;-79
2021/01/23 10:12:55;;;;;;;40.73;25.93;;;5.80;96.40;;;;;;4975392;28;20467;-80
2021/01/23 10:15:23;;;;;;;35.47;25.13;;;5.80;96.30;;;;;;4981194;28;20209;-80
2021/01/23 10:17:53;;;;;;;36.43;25.00;;;5.80;96.30;;;;;;4974149;28;20202;-80
2021/01/23 10:20:21;;;;;;;37.73;24.97;;;5.80;96.20;;;;;;4962472;28;20643;-81
2021/01/23 10:22:49;;;;;;;32.83;23.53;;;5.90;96.10;;;;;;4974602;28;20212;-81
2021/01/23 10:25:17;;;;;;;34.83;23.63;;;5.90;95.90;;;;;;4966625;28;20237;-81
2021/01/23 10:27:45;;;;;;;32.67;22.43;;;5.90;95.70;;;;;;4977304;28;20301;-79
2021/01/23 10:30:13;;;;;;;32.23;23.33;;;6.00;95.70;;;;;;4964500;28;20757;-80
2021/01/23 10:32:42;;;;;;;29.90;22.20;;;6.00;95.60;;;;;;4964880;28;20209;-82
2021/01/23 10:35:12;;;;;;;29.70;21.77;;;6.10;95.40;;;;;;4976760;28;20217;-82
2021/01/23 10:37:40;;;;;;;31.13;21.43;;;6.00;95.40;;;;;;4985289;28;20205;-81
2021/01/23 10:40:10;;;;;;;25.60;20.93;;;6.00;95.40;;;;;;4981517;28;20227;-81
2021/01/23 10:42:37;;;;;;;26.83;20.67;;;6.00;95.40;;;;;;4975122;28;20721;-81
2021/01/23 10:45:08;;;;;;;28.47;20.37;;;6.10;95.30;;;;;;4973946;28;20228;-80
2021/01/23 10:47:36;;;;;;;28.43;20.80;;;6.00;95.10;;;;;;4975417;28;20290;-80
2021/01/23 10:50:05;;;;;;;28.37;20.00;;;6.10;95.20;;;;;;4972657;28;20209;-81
2021/01/23 10:52:33;;;;;;;24.47;19.40;;;6.10;95.10;;;;;;4967585;28;20304;-82
2021/01/23 10:55:01;;;;;;;28.53;19.97;;;6.20;95.10;;;;;;4977377;28;20229;-80
2021/01/23 10:57:30;;;;;;;26.60;19.67;;;6.10;95.00;;;;;;4963657;28;20672;-81
2021/01/23 10:59:58;;;;;;;25.13;20.03;;;6.10;94.90;;;;;;4976849;28;20698;-82
2021/01/23 11:02:26;;;;;;;26.90;20.50;;;6.10;94.80;;;;;;4974152;28;20922;-80
2021/01/23 11:04:54;;;;;;;27.27;20.33;;;6.10;94.90;;;;;;4970922;28;20229;-79
2021/01/23 11:07:21;;;;;;;26.67;19.10;;;6.10;95.00;;;;;;4981618;28;20957;-80
2021/01/23 11:09:49;;;;;;;28.27;20.20;;;6.10;94.90;;;;;;4975298;28;20941;-82
2021/01/23 11:12:17;;;;;;;27.37;20.63;;;6.10;94.90;;;;;;4975630;28;20202;-82
2021/01/23 11:14:46;;;;;;;25.37;20.13;;;6.10;95.00;;;;;;4964343;28;20196;-81
2021/01/23 11:17:13;;;;;;;27.00;20.00;;;6.10;95.10;;;;;;4972076;28;20579;-83
2021/01/23 11:19:42;;;;;;;23.40;19.40;;;6.10;95.10;;;;;;4985521;28;20487;-81
2021/01/23 11:22:09;;;;;;;29.07;20.50;;;6.10;95.20;;;;;;4985727;28;20473;-82
2021/01/23 11:24:37;;;;;;;26.50;20.13;;;6.10;95.20;;;;;;4982554;28;20726;-82
2021/01/23 11:27:05;;;;;;;29.10;20.13;;;6.20;95.20;;;;;;4983410;28;20196;-82
2021/01/23 11:29:45;;;;;;;29.90;20.20;;;6.20;95.10;;;;;;4977048;28;20204;-82
2021/01/23 11:32:13;;;;;;;27.37;19.23;;;6.20;95.10;;;;;;4969074;28;20654;-80
2021/01/23 11:34:40;;;;;;;30.30;20.87;;;6.20;95.00;;;;;;4984393;28;20203;-80
2021/01/23 11:37:08;;;;;;;27.00;20.30;;;6.20;94.90;;;;;;4951498;28;20232;-81
2021/01/23 11:39:36;;;;;;;26.97;20.07;;;6.10;95.00;;;;;;4973995;28;20200;-81
2021/01/23 11:42:04;;;;;;;29.33;20.47;;;6.10;95.00;;;;;;4983718;28;20217;-82
2021/01/23 11:44:33;;;;;;;31.33;21.10;;;6.00;95.30;;;;;;4968997;28;20713;-81
2021/01/23 11:47:01;;;;;;;30.00;21.63;;;5.90;95.50;;;;;;4982430;28;20259;-79
2021/01/23 11:49:29;;;;;;;30.13;21.27;;;5.90;95.60;;;;;;4968017;28;20260;-81
2021/01/23 11:51:57;;;;;;;27.47;20.90;;;5.90;95.90;;;;;;4976936;28;20219;-81
2021/01/23 11:54:24;;;;;;;30.73;21.87;;;5.80;95.80;;;;;;4980533;28;20645;-81
2021/01/23 11:56:52;;;;;;;32.27;21.40;;;5.80;96.00;;;;;;4966796;28;20197;-79
2021/01/23 11:59:19;;;;;;;34.33;22.10;;;5.80;96.10;;;;;;4977839;28;20208;-81
2021/01/23 12:01:46;;;;;;;32.30;22.00;;;5.80;96.20;;;;;;4973765;28;20210;-79
2021/01/23 12:04:17;;;;;;;31.60;22.50;;;5.80;96.40;;;;;;4964031;28;20710;-82
2021/01/23 12:06:44;;;;;;;36.63;23.40;;;5.80;96.40;;;;;;4960317;28;20406;-81
2021/01/23 12:09:12;;;;;;;33.03;22.73;;;5.80;96.40;;;;;;4969708;28;20369;-79
2021/01/23 12:11:40;;;;;;;34.97;23.07;;;5.80;96.40;;;;;;4971268;28;20287;-81
2021/01/23 12:14:08;;;;;;;29.17;22.63;;;5.70;96.40;;;;;;4962880;28;20217;-79
2021/01/23 12:16:35;;;;;;;31.57;22.47;;;5.70;96.30;;;;;;4966745;28;20762;-82
2021/01/23 12:19:11;;;;;;;31.67;23.63;;;5.70;96.30;;;;;;4958935;28;20242;-82
2021/01/23 12:21:39;;;;;;;31.00;22.50;;;5.60;96.30;;;;;;4972981;28;20560;-80
2021/01/23 12:24:08;;;;;;;34.43;21.60;;;5.60;96.20;;;;;;4966957;28;20225;-80
2021/01/23 12:26:36;;;;;;;27.27;21.30;;;5.50;96.10;;;;;;4976581;28;20215;-80
2021/01/23 12:29:05;;;;;;;35.93;22.93;;;5.50;96.20;;;;;;4972046;28;20212;-80
2021/01/23 12:31:33;;;;;;;32.27;23.13;;;5.50;96.30;;;;;;4970902;28;20208;-81
2021/01/23 12:34:01;;;;;;;32.67;23.07;;;5.40;96.40;;;;;;4976083;28;20454;-81
2021/01/23 12:36:29;;;;;;;31.33;22.07;;;5.40;96.40;;;;;;4981712;28;20286;-82
2021/01/23 12:38:57;;;;;;;29.67;21.37;;;5.40;96.50;;;;;;4958310;28;20262;-80
2021/01/23 12:41:25;;;;;;;32.17;22.57;;;5.40;96.50;;;;;;4971231;28;20212;-82
2021/01/23 12:43:55;;;;;;;35.53;23.43;;;5.40;96.60;;;;;;4953126;28;20396;-82
2021/01/23 12:46:22;;;;;;;33.53;23.13;;;5.40;96.60;;;;;;4998429;28;20218;-81